Terminal Aerodrome Forecast
Issued by NWS

Home | Current Version | Previous Version | Graphics & Text | Print | Product List | Glossary On
Versions: 1 2 3 4 5 6 7 8 9 10 11 12 13 14 15 16 17 18 19 20 21 22 23 24 25 26 27 28 29 30 31 32 33
000
FTUS43 KLOT 270859 AAA
TAFDPA
TAF AMD
KDPA 270859Z 2709/2806 35010KT P6SM VCSH OVC040
      TEMPO 2709/2710 5SM -SN OVC030
     FM271100 35011KT P6SM BKN040
     FM271500 35013G18KT P6SM BKN050
     FM272300 03010KT P6SM FEW050=

USA.gov is the U.S. government's official web portal to all federal, state and local government web resources and services.